Time;durP1;ratioP1;P1;durP2;ratioP2;P2;SDS_P1;SDS_P2;PMS_P1;PMS_P2;Temp;Humidity;BMP_temperature;BMP_pressure;BME280_temperature;BME280_humidity;BME280_pressure;Samples;Min_cycle;Max_cycle;Signal;HPM_P1;HPM_P2
2023/09/27 00:00:22;;;;;;;11.90;5.67;;;;;;;20.51;72.86;95217.81;5094341;28;20437;-87
2023/09/27 00:02:50;;;;;;;14.87;6.27;;;;;;;20.50;72.10;95219.66;5077380;28;20501;-88
2023/09/27 00:05:17;;;;;;;11.13;5.80;;;;;;;19.95;74.55;95214.66;5096208;28;20785;-87
2023/09/27 00:07:44;;;;;;;8.93;5.43;;;;;;;19.89;75.37;95218.03;5096737;28;20467;-88
2023/09/27 00:10:11;;;;;;;9.00;5.17;;;;;;;19.90;75.47;95214.38;5096375;28;20479;-89
2023/09/27 00:12:38;;;;;;;11.73;5.87;;;;;;;19.90;75.52;95214.38;5095930;28;20923;-88
2023/09/27 00:15:08;;;;;;;7.33;5.23;;;;;;;19.93;75.46;95212.16;5096270;28;20489;-87
2023/09/27 00:17:36;;;;;;;8.40;4.80;;;;;;;19.94;75.26;95205.84;5096079;28;20975;-88
2023/09/27 00:20:05;;;;;;;7.30;5.07;;;;;;;19.93;75.46;95206.03;5095126;28;20432;-89
2023/09/27 00:22:32;;;;;;;6.80;5.37;;;;;;;19.97;75.47;95197.50;5095674;28;20490;-89
2023/09/27 00:25:00;;;;;;;12.53;6.20;;;;;;;19.98;75.76;95198.34;5096386;28;20472;-89
2023/09/27 00:27:27;;;;;;;10.20;5.60;;;;;;;20.00;75.75;95194.50;5096635;28;20440;-88
2023/09/27 00:29:53;;;;;;;10.20;6.07;;;;;;;20.01;75.72;95201.47;5100695;28;20467;-88
2023/09/27 00:32:20;;;;;;;16.77;6.37;;;;;;;20.01;76.06;95198.81;5098419;28;20446;-87
2023/09/27 00:34:50;;;;;;;13.20;5.30;;;;;;;19.97;75.24;95191.38;5061081;28;20451;-87
2023/09/27 00:37:17;;;;;;;11.63;5.33;;;;;;;19.86;76.23;95181.94;5095701;28;20447;-87
2023/09/27 00:39:44;;;;;;;14.80;6.30;;;;;;;19.84;76.40;95188.47;5095509;28;20456;-88
2023/09/27 00:42:11;;;;;;;7.10;5.30;;;;;;;19.78;76.90;95190.00;5095099;28;20449;-89
2023/09/27 00:44:39;;;;;;;10.37;4.40;;;;;;;19.69;77.14;95181.28;5094950;28;20922;-87
2023/09/27 00:47:07;;;;;;;17.53;5.77;;;;;;;19.66;77.73;95178.09;5059269;28;20447;-88
2023/09/27 00:49:35;;;;;;;13.63;4.80;;;;;;;19.66;78.21;95178.09;5094998;28;20451;-88
2023/09/27 00:52:03;;;;;;;6.20;4.60;;;;;;;19.64;78.22;95183.63;5095126;28;20459;-87
2023/09/27 00:54:31;;;;;;;12.30;5.30;;;;;;;19.62;77.58;95184.81;5094837;28;20437;-89
2023/09/27 00:56:59;;;;;;;11.70;6.23;;;;;;;19.55;78.22;95179.38;5094949;28;20483;-87
2023/09/27 00:59:26;;;;;;;11.53;6.07;;;;;;;19.54;77.98;95177.72;5059122;28;20474;-88
2023/09/27 01:01:53;;;;;;;12.90;6.27;;;;;;;19.38;78.24;95178.66;5094554;28;20455;-89
2023/09/27 01:04:20;;;;;;;12.10;5.40;;;;;;;19.36;78.76;95185.13;5095430;28;20450;-87
2023/09/27 01:06:47;;;;;;;7.83;5.13;;;;;;;19.33;78.26;95186.31;5094958;28;20439;-87
2023/09/27 01:09:17;;;;;;;15.60;5.90;;;;;;;19.19;78.82;95192.41;5095031;28;20446;-87
2023/09/27 01:11:46;;;;;;;10.50;6.97;;;;;;;19.13;79.26;95183.28;5060155;28;20494;-88
2023/09/27 01:14:13;;;;;;;12.23;5.50;;;;;;;19.17;78.93;95187.25;5094625;28;20480;-88
2023/09/27 01:16:40;;;;;;;13.07;5.30;;;;;;;19.24;79.17;95183.88;5094876;28;20511;-88
2023/09/27 01:19:07;;;;;;;6.93;4.80;;;;;;;19.33;79.91;95191.63;5094927;28;20436;-89
2023/09/27 01:21:33;;;;;;;8.83;5.97;;;;;;;19.37;79.13;95184.97;5094563;28;20448;-87
2023/09/27 01:24:02;;;;;;;5.90;5.00;;;;;;;19.40;78.85;95181.13;5094291;28;20442;-89
2023/09/27 01:26:31;;;;;;;15.30;4.67;;;;;;;19.45;79.08;95174.25;5059241;28;20474;-88
2023/09/27 01:28:58;;;;;;;7.43;5.20;;;;;;;19.47;78.95;95184.72;5059426;28;20465;-89
2023/09/27 01:31:25;;;;;;;8.20;4.63;;;;;;;19.47;78.80;95182.06;5075532;28;20449;-88
2023/09/27 01:33:51;;;;;;;12.33;5.30;;;;;;;19.41;78.95;95177.47;5094224;28;20436;-89
2023/09/27 01:36:18;;;;;;;8.60;4.83;;;;;;;19.39;78.82;95179.47;5058991;28;20494;-88
2023/09/27 01:38:45;;;;;;;12.37;5.27;;;;;;;19.35;78.70;95183.47;5095462;28;20476;-89
2023/09/27 01:41:13;;;;;;;6.70;5.67;;;;;;;19.36;79.11;95185.13;5094138;28;20445;-89
2023/09/27 01:43:40;;;;;;;7.83;5.23;;;;;;;19.37;78.90;95182.31;5094676;28;20435;-88
2023/09/27 01:46:07;;;;;;;9.73;5.57;;;;;;;19.40;79.13;95181.13;5094146;28;20447;-89
2023/09/27 01:48:34;;;;;;;10.17;4.93;;;;;;;19.43;78.86;95176.28;5093936;28;20451;-87
2023/09/27 01:51:01;;;;;;;7.97;5.60;;;;;;;19.44;78.58;95171.78;5094689;28;20493;-88
2023/09/27 01:53:28;;;;;;;13.00;4.77;;;;;;;19.46;78.68;95175.91;5094695;28;20443;-88
2023/09/27 01:55:54;;;;;;;11.30;4.83;;;;;;;19.48;78.23;95168.56;5095608;28;20490;-88
2023/09/27 01:58:26;;;;;;;12.57;7.00;;;;;;;19.46;77.90;95180.41;5096286;28;20453;-87
2023/09/27 02:00:53;;;;;;;7.57;4.90;;;;;;;19.37;78.43;95162.81;5058522;28;20455;-87
2023/09/27 02:03:20;;;;;;;5.50;5.00;;;;;;;19.36;78.65;95174.47;5093733;28;20475;-88
2023/09/27 02:05:46;;;;;;;7.20;5.50;;;;;;;19.37;78.90;95176.13;5058531;28;20448;-87
2023/09/27 02:08:13;;;;;;;7.67;5.57;;;;;;;19.34;78.59;95176.50;5093572;28;20447;-86
2023/09/27 02:10:40;;;;;;;12.43;5.47;;;;;;;19.33;79.01;95180.16;5075054;28;20433;-86
2023/09/27 02:13:07;;;;;;;8.07;5.90;;;;;;;19.36;78.80;95179.78;5097028;28;20436;-87
2023/09/27 02:15:35;;;;;;;13.60;5.03;;;;;;;19.37;78.72;95181.44;5062564;28;20483;-88
2023/09/27 02:18:01;;;;;;;9.70;5.67;;;;;;;19.37;78.72;95179.66;5097706;28;20451;-89
2023/09/27 02:20:29;;;;;;;8.20;4.90;;;;;;;19.35;78.31;95173.66;5098077;28;20448;-88
2023/09/27 02:22:56;;;;;;;8.90;5.13;;;;;;;19.27;78.20;95181.69;5097726;28;20461;-88
2023/09/27 02:25:23;;;;;;;5.67;5.17;;;;;;;19.22;78.66;95180.56;5098153;28;20925;-88
2023/09/27 02:27:50;;;;;;;10.23;5.73;;;;;;;19.10;79.16;95180.16;5098488;28;20456;-89
2023/09/27 02:30:17;;;;;;;9.20;4.90;;;;;;;19.11;79.67;95182.63;5097572;28;20462;-88
2023/09/27 02:32:45;;;;;;;12.07;5.37;;;;;;;19.12;78.94;95176.31;5097559;28;20444;-89
2023/09/27 02:35:13;;;;;;;8.77;5.50;;;;;;;19.12;79.03;95171.00;5098286;28;20906;-87
2023/09/27 02:37:42;;;;;;;7.60;5.00;;;;;;;19.13;78.99;95177.13;5097759;28;20959;-89
2023/09/27 02:40:12;;;;;;;6.63;5.30;;;;;;;19.02;78.56;95162.38;5098005;28;20444;-89
2023/09/27 02:42:40;;;;;;;13.73;5.40;;;;;;;19.09;78.08;95179.31;5097989;28;20450;-87
2023/09/27 02:45:09;;;;;;;6.50;4.80;;;;;;;19.04;78.41;95180.81;5098227;28;20437;-89
2023/09/27 02:47:36;;;;;;;5.40;4.33;;;;;;;19.03;78.81;95185.31;5097614;28;20933;-88
2023/09/27 02:50:09;;;;;;;6.73;4.40;;;;;;;19.06;78.76;95187.63;5097470;28;20444;-90
2023/09/27 02:52:37;;;;;;;9.90;5.37;;;;;;;19.04;78.95;95181.66;5061989;28;20505;-87
2023/09/27 02:55:04;;;;;;;7.63;5.20;;;;;;;19.10;78.02;95196.94;5097672;28;20458;-89
2023/09/27 02:57:31;;;;;;;10.53;5.10;;;;;;;19.05;77.96;95198.44;5097520;28;20488;-86
2023/09/27 02:59:58;;;;;;;9.50;5.13;;;;;;;19.01;78.64;95197.13;5078316;28;20422;-89
2023/09/27 03:02:25;;;;;;;8.03;4.40;;;;;;;19.00;78.33;95191.00;5097725;28;20443;-88
2023/09/27 03:04:52;;;;;;;6.43;4.80;;;;;;;18.98;78.52;95198.31;5062930;28;20456;-89
2023/09/27 03:07:20;;;;;;;9.53;5.13;;;;;;;18.98;78.92;95195.66;5098507;28;20944;-88
2023/09/27 03:09:47;;;;;;;6.87;5.13;;;;;;;18.94;77.97;95185.53;5098549;28;20436;-89
2023/09/27 03:12:14;;;;;;;12.83;5.67;;;;;;;18.91;78.73;95194.69;5098250;28;20517;-88
2023/09/27 03:14:41;;;;;;;6.50;4.80;;;;;;;18.82;78.73;95204.56;5098370;28;20445;-89
2023/09/27 03:17:09;;;;;;;9.30;4.80;;;;;;;18.76;79.52;95199.91;5098183;28;20485;-81
2023/09/27 03:19:35;;;;;;;11.13;5.67;;;;;;;18.71;78.86;95199.59;5097568;28;20913;-89
2023/09/27 03:22:02;;;;;;;11.23;4.93;;;;;;;18.61;78.70;95206.09;5097544;28;20462;-85
2023/09/27 03:24:34;;;;;;;9.40;5.37;;;;;;;18.42;79.12;95196.69;5097250;28;20826;-85
2023/09/27 03:27:03;;;;;;;8.00;5.07;;;;;;;18.30;79.83;95204.19;5096907;28;20456;-88
2023/09/27 03:29:30;;;;;;;7.80;4.90;;;;;;;18.14;80.68;95198.91;5096923;28;20483;-88
2023/09/27 03:31:57;;;;;;;10.73;5.47;;;;;;;18.02;81.09;95201.09;5061739;28;20513;-86
2023/09/27 03:34:24;;;;;;;8.70;5.17;;;;;;;17.89;82.12;95201.56;5096610;28;20541;-88
2023/09/27 03:36:55;;;;;;;16.63;5.87;;;;;;;17.81;82.34;95209.56;5062041;28;20492;-90
2023/09/27 03:39:23;;;;;;;9.43;5.60;;;;;;;17.70;83.15;95204.59;5063517;28;20450;-89
2023/09/27 03:41:52;;;;;;;10.70;5.27;;;;;;;17.60;83.61;95206.53;5096984;28;20570;-88
2023/09/27 03:44:18;;;;;;;9.27;6.13;;;;;;;17.55;83.75;95206.19;5096788;28;20465;-91
2023/09/27 03:46:46;;;;;;;6.43;5.73;;;;;;;17.45;83.89;95214.31;5096533;28;20772;-91
2023/09/27 03:49:13;;;;;;;8.70;5.10;;;;;;;17.38;84.13;95212.50;5096368;28;20440;-87
2023/09/27 03:51:40;;;;;;;17.93;6.30;;;;;;;17.32;84.34;95217.44;5093728;28;20437;-83
2023/09/27 03:54:07;;;;;;;9.87;6.20;;;;;;;17.27;84.74;95213.63;5076615;28;20436;-87
2023/09/27 03:56:34;;;;;;;12.23;5.80;;;;;;;17.22;84.59;95219.41;5096035;28;20547;-87
2023/09/27 03:59:02;;;;;;;6.33;4.93;;;;;;;17.18;84.77;95207.47;5095881;28;20443;-87
2023/09/27 04:01:29;;;;;;;11.60;5.00;;;;;;;17.14;85.26;95211.47;5057318;28;20450;-87
2023/09/27 04:04:00;;;;;;;6.93;5.20;;;;;;;17.03;85.14;95204.63;5077403;28;20560;-85
2023/09/27 04:06:27;;;;;;;16.53;4.97;;;;;;;17.12;85.66;95225.88;5075998;28;20451;-87
2023/09/27 04:08:53;;;;;;;10.57;6.00;;;;;;;17.15;84.97;95218.41;5081625;28;20968;-87
2023/09/27 04:11:20;;;;;;;8.57;5.20;;;;;;;17.15;85.44;95229.03;5097312;28;20462;-86
2023/09/27 04:13:48;;;;;;;11.10;5.63;;;;;;;17.14;85.52;95224.72;5081954;28;20494;-83
2023/09/27 04:16:16;;;;;;;10.73;5.47;;;;;;;17.20;85.35;95234.66;5086008;28;20489;-84
2023/09/27 04:18:43;;;;;;;10.63;6.10;;;;;;;17.22;85.24;95229.19;5096614;28;20820;-88
2023/09/27 04:21:11;;;;;;;19.50;6.57;;;;;;;17.18;84.64;95218.09;5096013;28;20461;-88
2023/09/27 04:23:37;;;;;;;12.33;5.80;;;;;;;17.24;84.40;95233.34;5061192;28;20509;-85
2023/09/27 04:26:06;;;;;;;11.90;6.37;;;;;;;17.19;84.58;95227.69;5095511;28;20448;-84
2023/09/27 04:28:33;;;;;;;11.20;5.87;;;;;;;17.26;84.43;95236.66;5096236;28;20851;-88
2023/09/27 04:31:00;;;;;;;14.47;6.93;;;;;;;17.30;83.96;95230.03;5095459;28;20479;-87
2023/09/27 04:33:28;;;;;;;442.40;343.17;;;;;;;17.83;86.89;95233.28;5075857;28;20436;-79
2023/09/27 04:35:55;;;;;;;112.37;76.83;;;;;;;18.42;81.75;95239.19;5094099;28;20466;-78
2023/09/27 04:38:22;;;;;;;64.57;44.00;;;;;;;18.88;79.63;95242.91;5094299;28;20442;-81
2023/09/27 04:40:49;;;;;;;41.40;24.67;;;;;;;19.42;76.44;95243.00;5094186;28;20442;-79
2023/09/27 04:43:15;;;;;;;25.70;10.30;;;;;;;19.63;74.16;95235.22;5093694;28;20491;-79
2023/09/27 04:45:42;;;;;;;20.33;9.43;;;;;;;19.99;73.81;95250.63;5093781;28;20434;-79
2023/09/27 04:48:09;;;;;;;11.70;6.20;;;;;;;20.22;71.16;95248.72;5055724;28;20490;-82
2023/09/27 04:50:39;;;;;;;17.93;7.10;;;;;;;20.08;71.17;95247.69;5094373;28;20475;-81
2023/09/27 04:53:06;;;;;;;21.60;7.60;;;;;;;19.83;71.60;95248.06;5094059;28;20448;-81
2023/09/27 04:55:33;;;;;;;12.00;5.93;;;;;;;19.59;72.60;95249.06;5076052;28;20432;-88
2023/09/27 04:58:00;;;;;;;29.57;7.30;;;;;;;19.37;73.62;95246.19;5094729;28;20487;-84
2023/09/27 05:00:27;;;;;;;17.57;7.00;;;;;;;19.23;77.15;95240.75;5094487;28;20443;-82
2023/09/27 05:02:54;;;;;;;14.47;5.30;;;;;;;19.04;79.68;95240.16;5094457;28;20442;-84
2023/09/27 05:05:21;;;;;;;8.33;5.73;;;;;;;18.96;79.90;95242.88;5075882;28;20442;-86
2023/09/27 05:07:49;;;;;;;8.70;5.97;;;;;;;18.88;81.64;95245.59;5094607;28;20440;-87
2023/09/27 05:10:16;;;;;;;16.33;6.17;;;;;;;18.80;80.02;95238.47;5094849;28;20457;-85
2023/09/27 05:12:43;;;;;;;12.13;5.77;;;;;;;18.72;78.48;95238.47;5095018;28;20461;-89
2023/09/27 05:15:10;;;;;;;14.70;6.03;;;;;;;18.78;79.89;95250.25;5094823;28;20465;-81
2023/09/27 05:17:37;;;;;;;22.10;6.47;;;;;;;18.69;79.56;95238.00;5095487;28;21158;-81
2023/09/27 05:20:09;;;;;;;17.10;11.70;;;;;;;19.37;86.13;95253.31;5094641;28;20454;-78
2023/09/27 05:22:36;;;;;;;17.97;9.63;;;;;;;20.32;82.27;95262.63;5093721;28;20490;-78
2023/09/27 05:25:05;;;;;;;9.43;7.30;;;;;;;21.24;74.17;95257.03;5084123;28;21292;-78
2023/09/27 05:27:33;;;;;;;12.50;7.53;;;;;;;21.81;70.72;95258.91;5038985;28;20516;-78
2023/09/27 05:29:59;;;;;;;7.83;6.20;;;;;;;22.20;88.45;95251.28;5077952;28;20482;-84
2023/09/27 05:32:27;;;;;;;15.77;5.77;;;;;;;22.09;69.30;95259.81;5073769;28;20468;-80
2023/09/27 05:34:54;;;;;;;12.77;4.83;;;;;;;22.02;67.16;95260.75;5084507;28;20457;-83
2023/09/27 05:37:21;;;;;;;9.80;5.70;;;;;;;21.91;67.06;95254.88;5093762;28;20487;-86
2023/09/27 05:39:48;;;;;;;11.93;4.90;;;;;;;21.83;66.89;95260.34;5083512;28;20466;-87
2023/09/27 05:42:16;;;;;;;8.13;5.87;;;;;;;21.79;66.65;95263.59;5101442;28;20460;-81
2023/09/27 05:44:42;;;;;;;6.73;5.23;;;;;;;21.82;67.12;95255.22;5093661;28;20447;-88
2023/09/27 05:47:09;;;;;;;8.60;5.43;;;;;;;21.91;66.81;95257.56;5094569;28;20433;-88
2023/09/27 05:49:38;;;;;;;11.23;5.90;;;;;;;21.90;66.27;95258.56;5095248;28;20521;-88
2023/09/27 05:52:05;;;;;;;14.10;4.90;;;;;;;21.87;65.81;95260.81;5095483;28;20533;-90
2023/09/27 05:54:32;;;;;;;11.53;6.00;;;;;;;21.92;66.39;95259.22;5076536;28;20472;-88
2023/09/27 05:56:59;;;;;;;6.43;4.97;;;;;;;22.00;66.30;95262.78;5095066;28;20487;-89
2023/09/27 05:59:28;;;;;;;8.27;5.50;;;;;;;22.08;65.91;95268.03;5076078;28;20823;-89
2023/09/27 06:01:55;;;;;;;13.40;6.33;;;;;;;22.19;64.95;95256.81;5093926;28;20458;-89
2023/09/27 06:04:21;;;;;;;15.97;6.33;;;;;;;22.39;65.04;95265.84;5094077;28;20435;-90
2023/09/27 06:06:49;;;;;;;7.60;6.17;;;;;;;22.68;62.61;95264.81;5093574;28;20446;-87
2023/09/27 06:09:16;;;;;;;12.33;6.20;;;;;;;22.91;59.83;95264.59;5094255;28;20804;-88
2023/09/27 06:11:42;;;;;;;8.23;5.30;;;;;;;23.11;59.09;95273.53;5093856;28;20533;-89
2023/09/27 06:14:10;;;;;;;12.80;6.07;;;;;;;23.36;59.60;95273.03;5094909;28;20450;-89
2023/09/27 06:16:39;;;;;;;10.00;5.63;;;;;;;23.54;59.18;95273.34;5094584;28;20787;-90
2023/09/27 06:19:06;;;;;;;7.60;6.30;;;;;;;23.67;58.76;95270.72;5094535;28;20452;-89
2023/09/27 06:21:34;;;;;;;7.70;5.27;;;;;;;23.38;57.35;95271.81;5094240;28;20528;-89
2023/09/27 06:24:01;;;;;;;13.70;5.50;;;;;;;23.50;58.02;95266.72;5075272;28;20417;-89
2023/09/27 06:26:28;;;;;;;7.17;5.30;;;;;;;23.65;58.82;95274.63;5094556;28;20454;-89
2023/09/27 06:28:58;;;;;;;8.93;4.10;;;;;;;23.56;56.99;95279.34;5059026;28;21004;-87
2023/09/27 06:31:24;;;;;;;9.60;5.87;;;;;;;23.79;57.57;95281.69;5094054;28;20454;-89
2023/09/27 06:33:52;;;;;;;11.83;6.20;;;;;;;23.30;57.09;95276.53;5095438;28;20439;-89
2023/09/27 06:36:21;;;;;;;10.60;5.10;;;;;;;23.52;57.58;95274.56;5094379;28;20444;-89
2023/09/27 06:38:48;;;;;;;13.57;5.90;;;;;;;23.76;57.33;95276.75;5094032;28;20571;-89
2023/09/27 06:41:20;;;;;;;9.90;4.97;;;;;;;23.90;57.25;95282.94;5094154;28;20486;-90
2023/09/27 06:43:47;;;;;;;7.60;5.00;;;;;;;23.34;56.94;95280.44;5094968;28;20463;-92
2023/09/27 06:46:15;;;;;;;10.60;6.53;;;;;;;23.23;57.27;95281.03;5094493;28;20500;-88
2023/09/27 06:48:43;;;;;;;6.00;5.10;;;;;;;23.47;57.03;95267.13;5094294;28;20872;-86
2023/09/27 06:51:13;;;;;;;20.93;7.67;;;;;;;23.71;55.44;95279.19;5094040;28;20451;-90
2023/09/27 06:53:40;;;;;;;7.97;5.07;;;;;;;23.48;57.15;95276.81;5094305;28;20435;-87
2023/09/27 06:56:07;;;;;;;12.37;5.37;;;;;;;23.69;56.60;95276.69;5093993;28;20455;-89
2023/09/27 06:58:33;;;;;;;6.60;4.67;;;;;;;23.80;55.64;95280.66;5095663;28;20812;-88
2023/09/27 07:01:00;;;;;;;12.83;4.70;;;;;;;23.27;56.74;95287.63;5097516;28;20462;-91
2023/09/27 07:03:29;;;;;;;7.90;5.53;;;;;;;23.11;56.73;95284.25;5097154;28;20447;-89
2023/09/27 07:05:57;;;;;;;10.60;4.37;;;;;;;22.91;58.44;95282.50;5097066;28;20447;-89
2023/09/27 07:08:25;;;;;;;9.00;5.03;;;;;;;22.69;59.06;95295.06;5097758;28;20851;-89
2023/09/27 07:10:52;;;;;;;11.67;5.20;;;;;;;22.45;59.22;95293.66;5078872;28;20468;-91
2023/09/27 07:13:19;;;;;;;8.90;5.60;;;;;;;22.32;59.98;95277.50;5098201;28;20448;-90
2023/09/27 07:15:47;;;;;;;7.90;5.10;;;;;;;22.41;60.25;95289.72;5098182;28;20441;-89
2023/09/27 07:18:14;;;;;;;8.27;5.20;;;;;;;22.52;59.44;95286.50;5097621;28;20481;-88
2023/09/27 07:20:42;;;;;;;7.93;5.40;;;;;;;22.27;60.08;95295.97;5098047;28;20449;-90
2023/09/27 07:23:14;;;;;;;14.10;6.60;;;;;;;22.40;59.40;95288.06;5097443;28;20919;-89
2023/09/27 07:25:42;;;;;;;6.63;4.83;;;;;;;22.76;58.64;95291.41;5096698;28;20807;-88
2023/09/27 07:28:10;;;;;;;7.57;5.07;;;;;;;22.91;57.66;95283.31;5096660;28;20452;-89
2023/09/27 07:30:37;;;;;;;9.63;5.80;;;;;;;22.88;59.02;95286.41;5096309;28;20478;-91
2023/09/27 07:33:09;;;;;;;9.23;5.30;;;;;;;22.73;59.08;95291.81;5097388;28;20450;-90
2023/09/27 07:35:41;;;;;;;12.83;5.30;;;;;;;22.67;58.99;95295.25;5097509;28;20816;-88
2023/09/27 07:38:08;;;;;;;8.43;4.40;;;;;;;22.30;58.68;95295.59;5096971;28;20545;-92
2023/09/27 07:40:35;;;;;;;8.77;4.60;;;;;;;22.13;59.32;95295.84;5097373;28;20440;-91
2023/09/27 07:43:04;;;;;;;11.60;5.27;;;;;;;22.31;59.11;95289.22;5097026;28;21120;-89
2023/09/27 07:45:34;;;;;;;6.80;4.90;;;;;;;22.58;58.54;95293.75;5096311;28;20454;-88
2023/09/27 07:48:01;;;;;;;5.47;4.57;;;;;;;22.82;58.34;95290.66;5096976;28;20445;-88
2023/09/27 07:50:31;;;;;;;10.60;5.30;;;;;;;23.08;58.80;95289.16;5096169;28;20854;-90
2023/09/27 07:52:58;;;;;;;6.10;5.57;;;;;;;23.30;57.78;95285.38;5095909;28;20450;-89
2023/09/27 07:55:25;;;;;;;9.77;5.10;;;;;;;23.42;57.05;95281.13;5096629;28;20443;-89
2023/09/27 07:57:52;;;;;;;5.80;5.20;;;;;;;23.60;56.58;95285.94;5095535;28;20489;-88
2023/09/27 08:00:27;;;;;;;8.27;4.63;;;;;;;23.76;54.79;95285.59;5095562;28;20478;-89
2023/09/27 08:02:55;;;;;;;17.63;6.60;;;;;;;23.72;55.23;95284.34;5096116;28;20499;-88
2023/09/27 08:05:22;;;;;;;7.40;4.83;;;;;;;23.39;55.76;95278.00;5095697;28;20501;-88
2023/09/27 08:07:50;;;;;;;11.03;4.77;;;;;;;23.63;55.09;95279.38;5095270;28;20489;-87
2023/09/27 08:10:18;;;;;;;7.37;4.63;;;;;;;23.69;53.42;95267.84;5093941;28;20513;-87
2023/09/27 08:12:47;;;;;;;9.40;4.30;;;;;;;23.84;53.10;95273.88;5094710;28;20447;-87
2023/09/27 08:15:17;;;;;;;9.33;4.73;;;;;;;23.89;52.43;95266.03;5095141;28;20448;-88
2023/09/27 08:17:47;;;;;;;12.87;6.00;;;;;;;24.07;53.87;95271.66;5094918;28;20519;-87
2023/09/27 08:20:14;;;;;;;12.47;6.00;;;;;;;24.02;51.43;95271.44;5059906;28;20519;-88
2023/09/27 08:22:41;;;;;;;10.40;4.27;;;;;;;24.17;51.91;95270.41;5094952;28;20942;-89
2023/09/27 08:25:14;;;;;;;8.60;4.83;;;;;;;24.06;50.53;95264.63;5059593;28;20449;-89
2023/09/27 08:27:41;;;;;;;12.00;5.03;;;;;;;24.21;50.21;95263.59;5094601;28;20986;-88
2023/09/27 08:30:11;;;;;;;16.10;4.00;;;;;;;24.16;50.10;95269.59;5075552;28;20517;-89
2023/09/27 08:32:38;;;;;;;19.57;4.40;;;;;;;24.24;51.05;95268.56;5095013;28;20881;-89
2023/09/27 08:35:08;;;;;;;11.40;4.00;;;;;;;24.21;50.91;95263.59;5094734;28;20909;-89
2023/09/27 08:37:34;;;;;;;10.73;5.30;;;;;;;24.13;49.81;95266.50;5094663;28;20490;-87
2023/09/27 08:40:01;;;;;;;6.83;4.80;;;;;;;24.06;50.40;95259.28;5094691;28;20462;-88
2023/09/27 08:42:29;;;;;;;6.60;4.57;;;;;;;24.24;49.78;95263.19;5095040;28;20443;-89
2023/09/27 08:44:58;;;;;;;7.20;4.90;;;;;;;24.17;50.75;95246.28;5094654;28;20442;-86
2023/09/27 08:47:25;;;;;;;15.97;4.30;;;;;;;24.43;48.67;95266.97;5094344;28;20450;-88
2023/09/27 08:49:52;;;;;;;6.07;4.47;;;;;;;24.40;49.16;95270.88;5094295;28;20455;-88
2023/09/27 08:52:22;;;;;;;6.50;4.73;;;;;;;24.04;48.67;95269.38;5094124;28;20474;-91
2023/09/27 08:54:49;;;;;;;13.67;5.30;;;;;;;24.15;48.01;95273.31;5058639;28;20549;-89
2023/09/27 08:57:17;;;;;;;14.50;4.53;;;;;;;24.03;47.69;95258.84;5094034;28;20472;-88
2023/09/27 08:59:45;;;;;;;10.83;4.63;;;;;;;23.98;49.87;95256.75;5094621;28;20455;-91
2023/09/27 09:02:13;;;;;;;12.83;4.80;;;;;;;23.87;49.18;95257.38;5093883;28;20471;-88
2023/09/27 09:04:42;;;;;;;6.67;4.60;;;;;;;24.10;49.57;95246.28;5093826;28;20481;-86
2023/09/27 09:07:09;;;;;;;10.10;5.03;;;;;;;24.32;50.17;95250.47;5094041;28;20439;-89
2023/09/27 09:09:39;;;;;;;9.20;6.20;;;;;;;24.30;51.54;95257.06;5094414;28;20986;-89
2023/09/27 09:12:09;;;;;;;13.70;4.90;;;;;;;24.31;49.93;95254.19;5093666;28;20443;-86
2023/09/27 09:14:42;;;;;;;6.20;4.67;;;;;;;24.27;49.41;95252.88;5059176;28;20440;-86
2023/09/27 09:17:10;;;;;;;13.00;4.80;;;;;;;24.62;50.31;95256.22;5093321;28;20450;-86
2023/09/27 09:19:41;;;;;;;9.80;4.70;;;;;;;24.77;48.29;95258.69;5093962;28;20483;-86
2023/09/27 09:22:11;;;;;;;20.03;5.27;;;;;;;24.75;47.83;95252.69;5093480;28;20448;-87
2023/09/27 09:24:41;;;;;;;8.73;4.20;;;;;;;24.60;48.34;95252.94;5093438;28;20470;-87
2023/09/27 09:27:10;;;;;;;5.23;4.63;;;;;;;24.69;48.64;95248.16;5093408;28;20441;-89
2023/09/27 09:29:50;;;;;;;9.93;5.17;;;;;;;24.87;48.16;95242.97;5093671;28;20483;-90
2023/09/27 09:32:18;;;;;;;6.83;4.67;;;;;;;24.90;47.49;95237.19;5093206;28;20439;-86
2023/09/27 09:34:47;;;;;;;8.90;4.47;;;;;;;24.64;48.36;95231.88;5093578;28;20447;-87
2023/09/27 09:37:18;;;;;;;11.07;4.40;;;;;;;24.57;50.81;95233.72;5093893;28;20439;-88
2023/09/27 09:39:47;;;;;;;7.40;4.63;;;;;;;24.55;48.14;95228.56;5093375;28;20479;-90
2023/09/27 09:42:29;;;;;;;5.80;4.70;;;;;;;24.70;48.73;95231.03;5092949;28;20469;-87
2023/09/27 09:45:00;;;;;;;6.93;4.43;;;;;;;24.94;47.88;95216.94;5092978;28;20786;-86
2023/09/27 09:47:27;;;;;;;11.53;5.70;;;;;;;25.27;47.82;95224.09;5094003;28;20451;-79
2023/09/27 09:49:54;;;;;;;13.63;4.67;;;;;;;25.15;45.79;95223.91;5094530;28;20459;-87
2023/09/27 09:52:27;;;;;;;9.80;4.67;;;;;;;25.02;46.44;95221.28;5094331;28;20455;-84
2023/09/27 09:54:58;;;;;;;7.90;4.10;;;;;;;24.91;46.43;95216.53;5093986;28;20535;-86
2023/09/27 09:57:32;;;;;;;9.30;4.50;;;;;;;25.10;47.17;95222.91;5092886;28;20750;-77
2023/09/27 10:00:12;;;;;;;8.47;3.90;;;;;;;24.63;46.76;95225.69;5093454;28;20527;-78
2023/09/27 10:02:49;;;;;;;9.97;4.83;;;;;;;24.56;48.85;95208.72;5093031;28;20786;-78
2023/09/27 10:05:18;;;;;;;11.77;5.60;;;;;;;24.59;48.46;95211.03;5093515;28;20442;-78
2023/09/27 10:07:45;;;;;;;5.60;4.40;;;;;;;24.64;47.60;95205.84;5093567;28;20489;-78
2023/09/27 10:10:14;;;;;;;8.33;4.20;;;;;;;24.64;47.85;95211.22;5057722;28;20813;-78
2023/09/27 10:12:42;;;;;;;6.70;3.60;;;;;;;24.39;48.40;95210.22;5092999;28;20439;-78
2023/09/27 10:15:10;;;;;;;13.20;4.50;;;;;;;24.15;49.01;95211.63;5074154;28;20447;-77
2023/09/27 10:17:37;;;;;;;9.10;4.40;;;;;;;24.36;50.03;95213.31;5092976;28;20490;-77
2023/09/27 10:20:12;;;;;;;12.50;4.37;;;;;;;24.16;48.94;95207.91;5093189;28;20451;-77
2023/09/27 10:22:40;;;;;;;13.80;3.83;;;;;;;23.96;50.64;95202.53;5093328;28;20481;-77
2023/09/27 10:25:32;;;;;;;5.47;4.90;;;;;;;23.90;49.06;95195.31;5057866;28;20475;-77
2023/09/27 10:28:05;;;;;;;6.33;3.90;;;;;;;23.97;50.07;95195.31;5092367;28;20451;-76
2023/09/27 10:31:06;;;;;;;8.53;4.20;;;;;;;24.02;49.03;95191.00;5091054;28;20834;-82
2023/09/27 10:33:34;;;;;;;7.07;4.23;;;;;;;23.99;48.71;95190.56;5095577;28;20482;-78
2023/09/27 10:36:29;;;;;;;6.80;4.30;;;;;;;23.79;48.96;95193.25;5098619;28;20450;-77
2023/09/27 10:39:05;;;;;;;5.00;3.77;;;;;;;23.73;49.07;95191.38;5096820;28;20578;-77
2023/09/27 10:41:46;;;;;;;8.03;3.83;;;;;;;23.69;50.16;95179.41;5096688;28;20450;-79
2023/09/27 10:44:13;;;;;;;6.80;4.53;;;;;;;23.68;50.06;95177.75;5097030;28;20447;-81
2023/09/27 10:46:45;;;;;;;4.90;4.10;;;;;;;23.62;50.96;95170.53;5096955;28;20446;-79
2023/09/27 10:49:12;;;;;;;10.90;4.83;;;;;;;23.77;52.67;95176.56;5096579;28;20443;-78
2023/09/27 10:51:39;;;;;;;4.87;4.20;;;;;;;23.72;51.09;95187.06;5096220;28;20959;-79
2023/09/27 10:54:08;;;;;;;10.37;4.53;;;;;;;23.56;51.15;95174.03;5096196;28;20431;-77
2023/09/27 10:56:35;;;;;;;7.17;4.30;;;;;;;23.69;53.18;95174.03;5095897;28;20443;-77
2023/09/27 10:59:04;;;;;;;10.17;5.17;;;;;;;23.76;52.43;95170.38;5096321;28;20495;-77
2023/09/27 11:01:33;;;;;;;15.37;4.90;;;;;;;23.73;51.31;95175.31;5096238;28;20447;-78
2023/09/27 11:04:01;;;;;;;5.80;4.83;;;;;;;23.72;52.05;95173.66;5096570;28;20439;-78
2023/09/27 11:06:28;;;;;;;15.57;4.90;;;;;;;23.68;50.49;95159.00;5096610;28;20444;-77
2023/09/27 11:09:05;;;;;;;8.20;4.20;;;;;;;23.70;52.23;95159.63;5096444;28;20446;-77
2023/09/27 11:11:32;;;;;;;10.70;4.70;;;;;;;23.71;52.07;95148.72;5096261;28;20449;-78
2023/09/27 11:13:58;;;;;;;6.30;4.70;;;;;;;23.69;52.58;95156.09;5096186;28;20454;-80
2023/09/27 11:16:27;;;;;;;14.10;5.67;;;;;;;23.66;52.74;95153.00;5096243;28;20444;-78
2023/09/27 11:18:56;;;;;;;11.53;4.63;;;;;;;23.65;53.23;95151.38;5095836;28;20483;-78
2023/09/27 11:21:25;;;;;;;7.57;4.93;;;;;;;23.61;54.17;95150.13;5096165;28;20940;-77
2023/09/27 11:23:56;;;;;;;10.90;5.43;;;;;;;23.76;54.00;95153.47;5077086;28;20443;-78
2023/09/27 11:26:24;;;;;;;11.27;4.77;;;;;;;23.79;53.36;95147.69;5096108;28;20453;-77
2023/09/27 11:29:00;;;;;;;7.93;3.93;;;;;;;23.79;53.50;95142.31;5096027;28;20531;-81
2023/09/27 11:31:30;;;;;;;8.60;4.90;;;;;;;23.75;54.21;95141.09;5060236;28;20439;-77
2023/09/27 11:34:15;;;;;;;12.77;5.50;;;;;;;23.95;55.03;95147.25;5059951;28;20439;-79